Time;durP1;ratioP1;P1;durP2;ratioP2;P2;SDS_P1;SDS_P2;PMS_P1;PMS_P2;Temp;Humidity;BMP_temperature;BMP_pressure;BME280_temperature;BME280_humidity;BME280_pressure;Samples;Min_cycle;Max_cycle;Signal;HPM_P1;HPM_P2
2021/06/28 00:00:38;;;;;;;9.00;5.35;;;;;;;22.59;68.55;100323.38;1801335;77;22225;-56
2021/06/28 00:03:12;;;;;;;8.50;5.30;;;;;;;22.58;68.45;100323.00;1828630;77;22163;-59
2021/06/28 00:06:05;;;;;;;8.33;5.55;;;;;;;22.57;68.50;100318.13;1831585;77;22151;-60
2021/06/28 00:08:38;;;;;;;8.73;5.20;;;;;;;22.57;68.44;100325.30;1821215;77;22142;-59
2021/06/28 00:11:11;;;;;;;10.95;5.37;;;;;;;22.55;68.53;100324.53;1828553;77;22490;-57
2021/06/28 00:13:44;;;;;;;9.90;5.85;;;;;;;22.55;68.56;100321.84;1831823;77;22136;-59
2021/06/28 00:16:17;;;;;;;8.50;5.67;;;;;;;22.62;68.29;100319.16;1823463;77;22167;-59
2021/06/28 00:18:52;;;;;;;10.23;5.58;;;;;;;22.54;68.44;100322.80;1829822;77;22179;-60
2021/06/28 00:21:25;;;;;;;8.15;5.87;;;;;;;22.51;68.47;100327.05;1820399;77;22170;-60
2021/06/28 00:24:17;;;;;;;11.12;6.15;;;;;;;22.46;68.53;100326.48;1824349;77;22182;-56
2021/06/28 00:26:50;;;;;;;8.95;5.60;;;;;;;22.47;68.51;100331.73;1821227;77;22175;-61
2021/06/28 00:29:23;;;;;;;7.15;5.50;;;;;;;22.43;68.61;100340.46;1816513;77;22206;-60
2021/06/28 00:31:56;;;;;;;7.17;5.25;;;;;;;22.50;68.46;100342.27;1834567;77;22176;-57
2021/06/28 00:34:29;;;;;;;6.90;5.30;;;;;;;22.42;68.66;100338.70;1817090;77;22214;-60
2021/06/28 00:37:03;;;;;;;10.70;5.47;;;;;;;22.41;68.77;100340.12;1851455;77;22175;-56
2021/06/28 00:39:55;;;;;;;10.38;5.45;;;;;;;22.43;68.66;100339.55;1815703;77;22206;-56
2021/06/28 00:42:28;;;;;;;7.90;4.95;;;;;;;22.35;68.93;100342.72;1834543;77;22179;-61
2021/06/28 00:45:23;;;;;;;7.45;5.70;;;;;;;22.25;69.30;100342.44;1830716;77;22217;-56
2021/06/28 00:48:11;;;;;;;9.43;5.37;;;;;;;22.21;69.63;100346.73;1807485;77;22190;-56
2021/06/28 00:50:51;;;;;;;9.70;5.60;;;;;;;22.12;69.91;100355.72;1804799;77;22237;-56
2021/06/28 00:53:43;;;;;;;8.58;5.47;;;;;;;22.10;70.02;100356.78;1822002;77;22601;-60
2021/06/28 00:56:35;;;;;;;7.40;5.10;;;;;;;22.11;70.00;100362.03;1833554;77;22186;-60
2021/06/28 00:59:08;;;;;;;8.28;5.50;;;;;;;22.13;70.09;100365.97;1844583;77;22225;-56
2021/06/28 01:01:41;;;;;;;9.20;5.83;;;;;;;22.08;70.13;100370.75;1852891;77;22151;-56
2021/06/28 01:04:14;;;;;;;10.50;6.22;;;;;;;22.14;69.95;100363.19;1808785;77;22234;-56
2021/06/28 01:06:47;;;;;;;8.98;5.45;;;;;;;22.22;69.55;100364.08;1853036;77;22174;-56
2021/06/28 01:09:40;;;;;;;10.43;5.65;;;;;;;22.09;69.90;100373.32;1819253;77;22174;-56
2021/06/28 01:12:13;;;;;;;8.85;5.85;;;;;;;22.10;69.88;100379.06;1851940;77;22637;-56
2021/06/28 01:15:06;;;;;;;12.60;6.08;;;;;;;21.98;70.16;100377.15;1830559;77;22221;-60
2021/06/28 01:17:40;;;;;;;10.65;5.15;;;;;;;21.95;70.09;100381.36;1834520;77;22599;-59
2021/06/28 01:20:19;;;;;;;8.38;4.95;;;;;;;21.91;70.17;100382.48;1811817;77;22214;-56
2021/06/28 01:23:23;;;;;;;9.58;5.70;;;;;;;21.87;70.30;100379.11;1819887;77;22198;-59
2021/06/28 01:25:59;;;;;;;16.07;7.55;;;;;;;21.83;70.39;100382.47;1804189;77;28493;-56
2021/06/28 01:28:33;;;;;;;11.22;6.17;;;;;;;21.86;70.32;100384.58;1834457;77;22164;-56
2021/06/28 01:31:25;;;;;;;9.23;5.55;;;;;;;21.86;70.28;100387.26;1832921;77;22180;-60
2021/06/28 01:33:58;;;;;;;12.25;6.12;;;;;;;21.83;70.21;100392.33;1828626;77;22226;-60
2021/06/28 01:36:31;;;;;;;11.78;5.80;;;;;;;21.79;70.23;100387.62;1834583;77;22172;-55
2021/06/28 01:39:24;;;;;;;9.00;5.35;;;;;;;21.69;70.50;100390.45;1834423;77;22669;-56
2021/06/28 01:41:57;;;;;;;10.80;5.60;;;;;;;21.65;70.63;100395.59;1831700;77;22163;-56
2021/06/28 01:44:31;;;;;;;15.70;5.80;;;;;;;21.63;70.60;100390.34;1821212;77;22214;-59
2021/06/28 01:47:23;;;;;;;16.55;6.12;;;;;;;21.63;70.50;100389.50;1834485;77;22164;-58
2021/06/28 01:49:56;;;;;;;13.40;6.50;;;;;;;21.68;70.29;100397.63;1815044;77;22614;-60
2021/06/28 01:52:29;;;;;;;10.48;6.00;;;;;;;21.76;69.90;100407.04;1807979;77;22174;-59
2021/06/28 01:55:22;;;;;;;14.45;5.55;;;;;;;21.74;69.79;100407.61;1827557;77;22205;-59
2021/06/28 01:57:58;;;;;;;12.03;5.55;;;;;;;21.73;69.70;100412.58;1834539;77;22152;-59
2021/06/28 02:00:53;;;;;;;8.80;5.67;;;;;;;21.67;69.79;100413.31;1808011;77;22639;-57
2021/06/28 02:03:26;;;;;;;14.78;7.80;;;;;;;21.82;69.24;100412.89;1818799;77;28015;-56
2021/06/28 02:05:59;;;;;;;16.85;6.17;;;;;;;21.93;68.91;100415.41;1852845;77;22622;-60
2021/06/28 02:08:51;;;;;;;12.73;5.92;;;;;;;21.97;68.66;100411.11;1829392;77;22156;-59
2021/06/28 02:11:24;;;;;;;11.33;5.35;;;;;;;21.97;68.56;100416.47;1827610;77;22139;-59
2021/06/28 02:14:16;;;;;;;11.80;6.42;;;;;;;21.95;68.47;100414.84;1824534;77;22174;-56
2021/06/28 02:16:50;;;;;;;10.20;5.90;;;;;;;21.94;68.44;100416.65;1834549;77;22172;-57
2021/06/28 02:19:25;;;;;;;11.93;5.75;;;;;;;21.92;68.48;100419.05;1812875;77;22590;-58
2021/06/28 02:21:58;;;;;;;10.13;6.37;;;;;;;21.88;68.57;100421.52;1851932;77;22179;-56
2021/06/28 02:24:50;;;;;;;12.18;6.62;;;;;;;21.69;69.25;100418.56;1835021;77;22209;-56
2021/06/28 02:27:23;;;;;;;11.90;6.45;;;;;;;21.81;68.99;100412.99;1852911;77;22574;-57
2021/06/28 02:29:56;;;;;;;11.45;6.33;;;;;;;21.79;69.15;100421.10;1832464;77;22225;-60
2021/06/28 02:32:29;;;;;;;10.15;6.83;;;;;;;21.75;69.26;100418.70;1841663;77;22581;-56
2021/06/28 02:35:05;;;;;;;9.95;6.33;;;;;;;21.82;69.00;100412.04;1814187;77;22230;-59
2021/06/28 02:37:40;;;;;;;10.03;6.20;;;;;;;21.82;69.03;100412.04;1843768;78;22179;-59
2021/06/28 02:40:13;;;;;;;12.68;6.78;;;;;;;21.74;69.19;100415.15;1811115;77;22249;-56
2021/06/28 02:42:46;;;;;;;11.80;6.42;;;;;;;21.68;69.49;100411.48;1834571;77;22571;-58
2021/06/28 02:45:38;;;;;;;9.45;6.35;;;;;;;21.69;69.52;100418.56;1806154;77;22174;-57
2021/06/28 02:48:11;;;;;;;8.13;6.92;;;;;;;21.68;69.55;100424.88;1828333;77;22194;-59
2021/06/28 02:51:08;;;;;;;14.58;6.80;;;;;;;21.76;69.59;100419.94;1852888;77;22171;-59
2021/06/28 02:53:41;;;;;;;8.68;6.05;;;;;;;21.69;69.77;100421.25;1832535;77;22164;-59
2021/06/28 02:58:57;;;;;;;9.98;6.83;;;;;;;21.71;70.03;100419.34;1816326;77;20262;-59
2021/06/28 03:01:49;;;;;;;10.55;7.53;;;;;;;21.71;70.23;100413.98;1834555;77;22203;-57
2021/06/28 03:04:41;;;;;;;11.45;6.42;;;;;;;21.77;70.34;100417.65;1818963;77;22613;-59
2021/06/28 03:07:14;;;;;;;9.98;6.47;;;;;;;21.86;70.25;100413.55;1824017;77;22650;-56
2021/06/28 03:09:47;;;;;;;10.60;7.08;;;;;;;21.88;70.34;100417.50;1835628;77;22201;-57
2021/06/28 03:12:20;;;;;;;12.75;7.03;;;;;;;21.97;70.25;100420.98;1834571;77;22179;-59
2021/06/28 03:14:53;;;;;;;12.93;7.10;;;;;;;22.08;70.09;100417.65;1815561;77;22186;-56
2021/06/28 03:17:45;;;;;;;13.13;6.65;;;;;;;22.13;69.92;100415.56;1806672;77;22198;-60
2021/06/28 03:20:18;;;;;;;11.38;6.75;;;;;;;22.18;70.00;100414.80;1810611;77;22617;-59
2021/06/28 03:23:11;;;;;;;14.63;7.35;;;;;;;22.22;70.12;100416.81;1834510;77;22136;-57
2021/06/28 03:26:04;;;;;;;12.60;7.17;;;;;;;22.22;70.19;100423.05;1916468;74;22200;-57
2021/06/28 03:28:54;;;;;;;11.68;7.55;;;;;;;22.29;70.02;100424.87;1829645;77;22214;-56
2021/06/28 03:31:30;;;;;;;14.58;7.37;;;;;;;22.31;70.12;100424.76;1834615;77;22576;-56
2021/06/28 03:34:21;;;;;;;10.45;7.10;;;;;;;22.31;70.34;100426.98;1822879;77;22186;-60
2021/06/28 03:36:54;;;;;;;13.28;7.97;;;;;;;22.32;70.62;100431.84;1833782;77;22159;-56
2021/06/28 03:39:46;;;;;;;13.50;7.75;;;;;;;22.39;70.69;100431.86;1835871;77;22182;-60
2021/06/28 03:42:19;;;;;;;10.48;7.53;;;;;;;22.45;70.65;100423.97;1832286;77;22175;-56
2021/06/28 03:45:13;;;;;;;15.58;7.15;;;;;;;22.52;70.60;100424.83;1811970;77;22242;-56
2021/06/28 03:47:46;;;;;;;11.90;7.33;;;;;;;22.61;70.64;100427.41;1834530;77;22176;-56
2021/06/28 03:50:19;;;;;;;11.35;7.87;;;;;;;22.72;70.56;100434.81;1802806;77;22186;-60
2021/06/28 03:53:11;;;;;;;8.28;7.00;;;;;;;22.83;70.46;100428.77;1826345;77;22159;-61
2021/06/28 03:55:44;;;;;;;12.78;7.97;;;;;;;22.95;70.23;100433.82;1798742;77;22245;-61
2021/06/28 03:58:37;;;;;;;10.72;7.78;;;;;;;23.06;70.01;100429.98;1833608;77;22168;-57
2021/06/28 04:01:10;;;;;;;9.88;7.08;;;;;;;23.14;69.75;100429.48;1830262;77;22155;-56
2021/06/28 04:04:03;;;;;;;10.65;7.28;;;;;;;23.26;69.50;100433.22;1827596;77;22234;-56
2021/06/28 04:06:36;;;;;;;8.45;7.17;;;;;;;23.36;69.58;100435.69;1819809;77;22181;-62
2021/06/28 04:09:29;;;;;;;8.68;6.75;;;;;;;23.51;69.50;100439.69;1814668;77;22221;-56
2021/06/28 04:12:03;;;;;;;10.75;7.22;;;;;;;23.57;69.30;100441.47;1852850;77;22203;-62
2021/06/28 04:14:37;;;;;;;7.80;6.33;;;;;;;23.60;69.53;100449.33;1814004;77;22723;-56
2021/06/28 04:17:29;;;;;;;9.83;6.53;;;;;;;23.69;68.87;100446.51;1834578;77;22599;-56
2021/06/28 04:20:05;;;;;;;10.90;6.87;;;;;;;23.78;68.85;100443.71;1807872;77;22213;-56
2021/06/28 04:22:58;;;;;;;9.40;7.15;;;;;;;23.88;68.43;100451.51;1834491;77;22167;-63
2021/06/28 04:25:51;;;;;;;9.60;6.17;;;;;;;24.02;68.40;100456.02;1814751;77;22661;-57
2021/06/28 04:28:42;;;;;;;11.57;6.20;;;;;;;24.15;68.20;100458.72;1817287;77;22167;-56
2021/06/28 04:31:15;;;;;;;10.78;6.75;;;;;;;24.26;67.79;100453.94;1821908;77;22589;-56
2021/06/28 04:34:27;;;;;;;10.25;6.67;;;;;;;24.35;66.92;100457.34;1821162;77;22277;-62
2021/06/28 04:37:00;;;;;;;12.13;7.25;;;;;;;24.55;66.45;100459.11;1851948;77;22183;-61
2021/06/28 04:39:33;;;;;;;8.70;6.60;;;;;;;24.57;66.38;100459.02;1820764;77;22166;-62
2021/06/28 04:42:26;;;;;;;9.23;6.08;;;;;;;24.70;66.25;100460.36;1834311;77;22204;-56
2021/06/28 04:44:59;;;;;;;7.60;6.40;;;;;;;24.77;65.92;100462.53;1802275;77;22660;-56
2021/06/28 04:47:32;;;;;;;7.70;6.35;;;;;;;24.91;65.39;100463.38;1827592;77;22132;-61
2021/06/28 04:50:07;;;;;;;9.35;6.67;;;;;;;25.03;64.62;100465.20;1831461;77;22201;-61
2021/06/28 04:52:59;;;;;;;8.45;6.17;;;;;;;25.21;64.35;100467.52;1827867;77;22159;-62
2021/06/28 04:55:32;;;;;;;10.18;6.15;;;;;;;25.35;63.19;100463.84;1806329;77;22163;-62
2021/06/28 04:58:06;;;;;;;7.20;5.60;;;;;;;25.48;62.78;100460.63;1834647;77;22176;-62
2021/06/28 05:00:58;;;;;;;7.72;5.47;;;;;;;25.63;62.44;100471.25;1910161;74;22140;-57
2021/06/28 05:03:31;;;;;;;8.38;5.70;;;;;;;25.73;60.81;100474.98;1833651;77;22116;-61
2021/06/28 05:06:23;;;;;;;9.10;5.80;;;;;;;25.85;60.67;100471.84;1810606;77;22618;-57
2021/06/28 05:09:16;;;;;;;7.40;6.37;;;;;;;25.94;60.61;100476.55;1837280;77;22712;-62
2021/06/28 05:11:49;;;;;;;7.17;5.08;;;;;;;26.10;60.14;100469.96;1831683;77;22183;-61
2021/06/28 05:14:22;;;;;;;8.15;5.60;;;;;;;26.20;59.33;100471.52;1818018;77;22253;-61
2021/06/28 05:17:14;;;;;;;7.03;5.30;;;;;;;26.39;58.77;100476.34;1834536;77;22192;-58
2021/06/28 05:19:48;;;;;;;7.08;5.47;;;;;;;26.49;57.43;100475.13;1817565;77;22178;-56
2021/06/28 05:22:21;;;;;;;8.78;5.70;;;;;;;26.65;58.02;100474.31;1830119;77;22652;-57
2021/06/28 05:25:13;;;;;;;8.78;6.45;;;;;;;26.73;57.13;100476.39;1811577;77;22238;-60
2021/06/28 05:28:06;;;;;;;5.70;5.00;;;;;;;26.89;56.98;100475.22;1848161;77;22250;-57
2021/06/28 05:30:39;;;;;;;9.28;5.30;;;;;;;27.10;55.88;100474.82;1805012;77;22187;-62
2021/06/28 05:33:13;;;;;;;6.90;4.62;;;;;;;27.17;55.47;100479.22;1820940;77;22199;-61
2021/06/28 05:35:46;;;;;;;7.47;4.95;;;;;;;27.33;54.94;100481.56;1817275;77;22217;-57
2021/06/28 05:38:19;;;;;;;6.40;4.70;;;;;;;27.48;54.65;100488.05;1829175;77;22182;-62
2021/06/28 05:40:52;;;;;;;7.40;4.87;;;;;;;27.57;53.17;100485.47;1814937;77;22185;-57
2021/06/28 05:43:26;;;;;;;5.97;4.67;;;;;;;27.68;52.83;100481.88;1816834;77;23290;-57
2021/06/28 05:46:18;;;;;;;6.50;4.42;;;;;;;27.80;52.21;100484.55;1821376;77;22205;-57
2021/06/28 05:48:51;;;;;;;6.40;4.33;;;;;;;27.86;51.81;100478.59;1812357;77;22198;-57
2021/06/28 05:51:43;;;;;;;6.35;4.15;;;;;;;28.02;51.43;100491.20;1830160;77;22543;-57
2021/06/28 05:54:16;;;;;;;6.70;4.75;;;;;;;28.22;51.41;100485.11;1812324;77;22226;-61
2021/06/28 05:56:49;;;;;;;6.05;4.58;;;;;;;28.39;51.30;100487.72;1834546;77;22139;-57
2021/06/28 05:59:23;;;;;;;5.78;3.87;;;;;;;28.50;50.26;100489.84;1806878;77;22213;-62
2021/06/28 06:01:56;;;;;;;4.87;4.12;;;;;;;28.56;49.39;100480.36;1828132;77;22586;-57
2021/06/28 06:04:29;;;;;;;5.15;3.90;;;;;;;28.69;49.77;100484.20;1821756;77;22601;-61
2021/06/28 06:07:03;;;;;;;5.40;3.90;;;;;;;28.87;50.14;100480.39;1820745;77;22587;-57
2021/06/28 06:09:37;;;;;;;7.20;4.10;;;;;;;29.07;49.42;100485.91;1800703;77;22179;-61
2021/06/28 06:12:29;;;;;;;7.47;4.03;;;;;;;29.19;47.84;100478.52;1829066;77;22139;-57
2021/06/28 06:15:05;;;;;;;5.33;4.33;;;;;;;29.20;47.80;100488.36;1832083;77;22719;-56
2021/06/28 06:17:39;;;;;;;4.67;3.72;;;;;;;29.36;47.62;100487.84;1852906;77;22179;-60
2021/06/28 06:20:13;;;;;;;5.20;4.00;;;;;;;29.59;46.01;100495.75;1804385;77;22238;-57
2021/06/28 06:23:06;;;;;;;6.10;4.17;;;;;;;29.74;46.85;100492.99;1852855;77;22554;-57
2021/06/28 06:25:45;;;;;;;4.37;3.92;;;;;;;29.80;45.93;100496.50;1803419;77;22186;-57
2021/06/28 06:28:38;;;;;;;5.12;3.98;;;;;;;29.98;46.45;100501.27;1825644;77;22155;-58
2021/06/28 06:31:12;;;;;;;6.97;4.08;;;;;;;30.07;45.35;100503.61;1827411;77;22452;-60
2021/06/28 06:33:45;;;;;;;4.95;3.67;;;;;;;30.19;45.67;100501.11;1831684;77;22199;-61
2021/06/28 06:36:37;;;;;;;5.80;3.70;;;;;;;30.35;45.47;100511.86;1852359;77;22199;-61
2021/06/28 06:39:10;;;;;;;6.30;3.85;;;;;;;30.42;44.70;100507.56;1818807;77;22238;-62
2021/06/28 06:41:43;;;;;;;6.75;4.00;;;;;;;30.43;42.89;100509.80;1819755;77;22167;-57
2021/06/28 06:44:16;;;;;;;4.35;3.60;;;;;;;30.36;42.70;100514.94;1807640;77;22593;-57
2021/06/28 06:46:49;;;;;;;5.47;3.67;;;;;;;30.22;43.09;100519.83;1848428;77;22171;-61
2021/06/28 06:49:22;;;;;;;5.40;3.72;;;;;;;30.26;43.16;100514.44;1823263;77;22202;-60
2021/06/28 06:51:56;;;;;;;5.42;3.87;;;;;;;30.36;43.33;100509.50;1852949;77;23293;-57
2021/06/28 06:54:29;;;;;;;4.87;3.60;;;;;;;30.57;42.23;100506.64;1839812;77;22206;-61
2021/06/28 06:57:21;;;;;;;5.40;3.80;;;;;;;30.66;42.90;100511.19;1837757;77;22163;-59
2021/06/28 06:59:54;;;;;;;4.90;3.40;;;;;;;30.88;43.09;100515.94;1811612;77;22178;-57
2021/06/28 07:02:27;;;;;;;4.53;3.80;;;;;;;30.87;43.22;100529.16;1834567;77;22175;-61
2021/06/28 07:05:00;;;;;;;4.33;3.33;;;;;;;30.92;41.80;100521.91;1814668;77;22178;-62
2021/06/28 07:07:52;;;;;;;5.12;3.52;;;;;;;31.04;42.58;100523.45;1818613;77;22166;-62
2021/06/28 07:10:25;;;;;;;4.62;3.52;;;;;;;31.30;41.13;100526.85;1811171;77;22225;-61
2021/06/28 07:12:58;;;;;;;5.87;3.72;;;;;;;31.45;40.88;100517.67;1821458;77;22171;-58
2021/06/28 07:15:32;;;;;;;3.77;3.45;;;;;;;31.66;41.50;100519.28;1823957;77;22229;-61
2021/06/28 07:18:05;;;;;;;3.87;3.22;;;;;;;31.72;41.63;100519.54;1852987;77;22179;-57
2021/06/28 07:20:39;;;;;;;4.85;3.85;;;;;;;31.88;39.92;100518.84;1806155;77;22625;-60
2021/06/28 07:23:31;;;;;;;5.25;3.55;;;;;;;31.86;39.94;100518.14;1834508;77;22132;-61
2021/06/28 07:26:04;;;;;;;5.55;3.62;;;;;;;31.98;39.12;100521.52;1827430;77;22610;-57
2021/06/28 07:28:56;;;;;;;4.33;3.25;;;;;;;32.01;40.44;100514.37;1829043;77;22672;-57
2021/06/28 07:31:30;;;;;;;4.17;3.40;;;;;;;32.39;40.12;100513.37;1834528;77;22205;-58
2021/06/28 07:34:04;;;;;;;4.80;3.58;;;;;;;32.67;37.92;100506.40;1845673;77;22174;-61
2021/06/28 07:36:37;;;;;;;5.20;3.70;;;;;;;32.74;38.45;100515.64;1810363;77;22174;-59
2021/06/28 07:39:10;;;;;;;5.80;3.15;;;;;;;33.00;38.23;100513.42;1844304;77;22573;-62
2021/06/28 07:41:43;;;;;;;5.58;3.27;;;;;;;33.25;38.16;100511.66;1852873;77;22179;-58
2021/06/28 07:44:17;;;;;;;4.55;3.40;;;;;;;33.63;38.01;100511.30;1828808;77;22181;-57
2021/06/28 07:46:50;;;;;;;5.03;3.47;;;;;;;34.12;37.34;100506.95;1820223;77;22155;-61
2021/06/28 07:49:23;;;;;;;7.17;3.37;;;;;;;34.31;36.56;100511.20;1841181;77;22170;-57
2021/06/28 07:51:56;;;;;;;5.12;2.98;;;;;;;34.54;36.25;100514.12;1824176;77;22207;-59
2021/06/28 07:54:30;;;;;;;4.33;3.45;;;;;;;34.75;35.59;100513.56;1819181;77;22575;-61
2021/06/28 07:57:22;;;;;;;4.00;2.90;;;;;;;34.87;35.58;100509.09;1834474;77;22175;-62
2021/06/28 07:59:55;;;;;;;4.08;3.35;;;;;;;34.81;34.80;100514.23;1815737;77;22625;-61
2021/06/28 08:02:29;;;;;;;3.60;3.02;;;;;;;34.72;33.98;100514.41;1850872;77;22598;-57
2021/06/28 08:05:04;;;;;;;5.92;3.47;;;;;;;34.48;34.73;100511.55;1814337;77;22171;-57
2021/06/28 08:07:56;;;;;;;7.25;3.12;;;;;;;34.50;35.80;100515.48;1852814;77;22167;-60
2021/06/28 08:10:29;;;;;;;6.25;3.40;;;;;;;34.55;35.15;100508.46;1825728;77;22201;-60
2021/06/28 08:13:03;;;;;;;3.27;2.92;;;;;;;34.50;34.50;100514.13;1817162;77;22167;-60
2021/06/28 08:15:37;;;;;;;4.67;3.77;;;;;;;34.22;35.65;100512.58;1824285;77;22181;-60
2021/06/28 08:18:10;;;;;;;4.53;3.58;;;;;;;34.16;35.91;100515.14;1834604;77;22180;-60
2021/06/28 08:20:43;;;;;;;4.15;3.60;;;;;;;34.30;35.32;100513.07;1822719;77;22593;-60
2021/06/28 08:23:16;;;;;;;4.72;3.50;;;;;;;34.43;35.61;100520.77;1827580;77;22173;-60
2021/06/28 08:25:50;;;;;;;4.85;3.30;;;;;;;34.55;34.71;100514.45;1821052;77;22165;-61
2021/06/28 08:28:42;;;;;;;6.20;3.95;;;;;;;34.69;33.92;100513.72;1849748;77;22536;-57
2021/06/28 08:31:15;;;;;;;6.62;4.47;;;;;;;34.77;34.41;100522.44;1834243;77;22203;-57
2021/06/28 08:33:49;;;;;;;6.90;4.30;;;;;;;34.77;34.56;100518.84;1823520;77;22179;-61
2021/06/28 08:36:22;;;;;;;5.67;3.40;;;;;;;34.94;33.78;100521.00;1834377;77;22181;-57
2021/06/28 08:38:56;;;;;;;3.98;3.02;;;;;;;34.95;33.61;100530.41;1847623;77;22258;-61
2021/06/28 08:41:30;;;;;;;5.65;3.47;;;;;;;34.87;34.11;100523.60;1833731;77;22124;-59
2021/06/28 08:44:04;;;;;;;3.65;3.30;;;;;;;34.70;33.61;100532.36;1845860;77;22201;-58
2021/06/28 08:46:38;;;;;;;4.55;3.25;;;;;;;34.49;34.55;100537.00;1852887;77;22642;-60
2021/06/28 08:49:11;;;;;;;6.62;3.10;;;;;;;34.53;35.55;100535.63;1825815;77;22187;-60
2021/06/28 08:51:45;;;;;;;4.92;3.25;;;;;;;34.62;34.68;100540.07;1825656;77;22163;-60
2021/06/28 08:54:37;;;;;;;5.03;3.62;;;;;;;34.66;33.70;100535.09;1837899;77;22185;-57
2021/06/28 08:57:10;;;;;;;4.40;3.65;;;;;;;34.66;33.67;100543.30;1834695;77;22589;-61
2021/06/28 08:59:44;;;;;;;10.30;5.17;;;;;;;34.73;33.80;100545.67;1811346;77;22252;-57
2021/06/28 09:02:17;;;;;;;5.85;3.52;;;;;;;34.89;33.82;100538.45;1829653;77;22139;-57
2021/06/28 09:05:10;;;;;;;4.55;3.25;;;;;;;35.08;33.47;100547.66;1830696;77;22169;-57
2021/06/28 09:07:43;;;;;;;13.68;3.65;;;;;;;35.29;33.54;100548.43;1812459;77;22172;-60
2021/06/28 09:17:48;;;;;;;3.90;3.45;;;;;;;35.77;31.75;100545.32;1842509;77;22136;-57
2021/06/28 09:20:27;;;;;;;7.35;3.50;;;;;;;35.80;32.07;100544.43;1807422;77;22222;-57
2021/06/28 09:23:01;;;;;;;4.85;3.90;;;;;;;35.65;31.38;100544.36;1834501;77;22171;-61
2021/06/28 09:25:37;;;;;;;3.80;3.40;;;;;;;35.71;31.64;100545.01;1807002;77;22206;-57
2021/06/28 09:28:10;;;;;;;6.55;3.25;;;;;;;35.66;31.09;100541.95;1834512;77;22176;-60
2021/06/28 09:31:02;;;;;;;5.62;3.50;;;;;;;35.69;31.54;100535.25;1841048;77;22200;-60
2021/06/28 09:33:36;;;;;;;4.35;3.20;;;;;;;35.82;31.30;100530.05;1832884;77;22200;-57
2021/06/28 09:36:22;;;;;;;6.17;3.02;;;;;;;36.02;31.18;100540.03;1833782;77;22228;-57
2021/06/28 09:39:35;;;;;;;4.40;3.60;;;;;;;36.05;30.74;100537.96;1836519;77;22221;-61
2021/06/28 09:42:14;;;;;;;5.20;3.10;;;;;;;35.86;30.54;100531.89;1826915;77;22155;-61
2021/06/28 09:44:57;;;;;;;4.37;2.85;;;;;;;35.81;31.74;100537.05;1817533;77;22217;-57
2021/06/28 09:47:33;;;;;;;4.25;2.98;;;;;;;35.74;29.66;100525.98;1823562;77;22179;-60
2021/06/28 09:50:19;;;;;;;3.90;2.98;;;;;;;35.71;30.72;100521.74;1807752;77;23323;-61
2021/06/28 09:52:55;;;;;;;4.05;2.90;;;;;;;35.61;31.17;100527.09;1833058;77;22543;-57
2021/06/28 09:55:48;;;;;;;7.33;3.10;;;;;;;35.61;31.45;100522.48;1788171;77;28090;-61
2021/06/28 09:58:27;;;;;;;3.50;3.10;;;;;;;35.76;31.23;100526.66;1834535;77;22176;-58
2021/06/28 10:04:04;;;;;;;4.35;3.08;;;;;;;35.81;31.02;100522.00;1828008;77;22210;-57
2021/06/28 10:06:56;;;;;;;5.53;2.98;;;;;;;35.83;31.41;100520.80;1829546;77;22123;-59
2021/06/28 10:09:35;;;;;;;3.62;3.02;;;;;;;35.96;31.22;100521.55;1838431;77;22245;-57
2021/06/28 10:12:32;;;;;;;6.90;3.10;;;;;;;36.11;31.36;100520.80;1825665;77;22226;-57
2021/06/28 10:15:28;;;;;;;5.80;3.25;;;;;;;36.32;31.05;100514.62;1809246;77;22205;-57
2021/06/28 10:18:20;;;;;;;4.47;3.30;;;;;;;36.40;30.90;100517.28;1837100;77;27955;-61
2021/06/28 10:20:54;;;;;;;3.90;2.77;;;;;;;36.68;29.89;100519.42;1806084;77;22694;-61
2021/06/28 10:23:46;;;;;;;6.45;3.30;;;;;;;36.73;29.63;100518.84;1831469;77;22188;-57
2021/06/28 10:26:19;;;;;;;4.08;2.75;;;;;;;36.79;29.77;100512.61;1834550;77;22156;-60
2021/06/28 10:28:54;;;;;;;5.05;2.95;;;;;;;36.79;29.24;100524.12;1815224;77;22307;-59
2021/06/28 10:31:27;;;;;;;6.08;2.90;;;;;;;36.70;29.34;100524.70;1835261;78;22178;-57
2021/06/28 10:34:19;;;;;;;7.28;3.00;;;;;;;36.72;29.93;100522.63;1842163;77;22181;-57
2021/06/28 10:36:55;;;;;;;6.08;2.92;;;;;;;36.68;29.16;100525.41;1820358;77;22191;-60
2021/06/28 10:39:30;;;;;;;5.85;2.72;;;;;;;36.64;29.53;100525.48;1822100;77;22640;-57
2021/06/28 10:42:50;;;;;;;4.22;2.70;;;;;;;36.66;29.30;100523.38;1834520;77;22172;-60
2021/06/28 10:45:42;;;;;;;3.65;2.70;;;;;;;36.77;28.80;100522.92;1826153;77;22197;-60
2021/06/28 10:48:18;;;;;;;3.75;2.58;;;;;;;36.72;28.15;100524.87;1836108;77;22606;-57
2021/06/28 10:51:07;;;;;;;3.75;2.52;;;;;;;36.61;29.10;100526.19;1811198;77;20432;-57
2021/06/28 10:53:45;;;;;;;5.80;3.50;;;;;;;36.67;29.55;100525.08;1822601;77;22523;-57
2021/06/28 10:56:36;;;;;;;4.53;2.92;;;;;;;36.62;29.73;100525.66;1803720;77;22173;-61
2021/06/28 10:59:28;;;;;;;3.75;2.40;;;;;;;36.55;28.75;100522.82;1826101;77;22202;-61
2021/06/28 11:02:13;;;;;;;5.70;2.87;;;;;;;36.54;30.03;100524.36;1828335;77;22143;-61
2021/06/28 11:05:07;;;;;;;3.62;3.15;;;;;;;36.43;29.59;100520.16;1813214;77;22186;-62
2021/06/28 11:07:48;;;;;;;3.95;3.00;;;;;;;36.42;29.20;100523.44;1828241;77;22579;-62
2021/06/28 11:10:39;;;;;;;3.45;2.65;;;;;;;36.54;29.95;100522.99;1809192;77;22269;-60
2021/06/28 11:13:40;;;;;;;3.35;3.05;;;;;;;36.68;30.15;100521.30;1852814;77;22155;-61
2021/06/28 11:16:30;;;;;;;6.70;2.90;;;;;;;36.92;30.74;100521.55;1828479;77;22119;-61
2021/06/28 11:19:50;;;;;;;2.70;2.40;;;;;;;37.08;30.22;100525.17;1811699;77;22569;-60
2021/06/28 11:22:50;;;;;;;12.40;3.65;;;;;;;37.19;28.42;100521.95;1829449;77;22622;-60
2021/06/28 11:25:28;;;;;;;4.33;2.83;;;;;;;37.19;27.39;100528.27;1804050;77;22183;-61
2021/06/28 11:28:24;;;;;;;4.30;3.20;;;;;;;37.19;28.32;100530.19;1793903;77;28030;-61
2021/06/28 11:31:22;;;;;;;4.92;2.72;;;;;;;37.20;28.00;100527.23;1819284;77;22213;-61
2021/06/28 11:33:58;;;;;;;4.10;2.70;;;;;;;37.29;27.51;100523.88;1847494;77;22215;-61
2021/06/28 11:37:03;;;;;;;3.62;2.98;;;;;;;37.05;26.24;100520.93;1852707;77;22179;-60
2021/06/28 11:39:36;;;;;;;4.30;2.75;;;;;;;36.86;27.24;100520.95;1818205;77;22214;-61
2021/06/28 11:42:27;;;;;;;3.35;2.60;;;;;;;36.87;27.99;100519.92;1834433;77;22199;-61
2021/06/28 11:45:24;;;;;;;10.83;3.47;;;;;;;36.84;27.37;100517.02;1791812;77;28060;-56
2021/06/28 11:48:00;;;;;;;6.47;2.83;;;;;;;36.97;27.96;100516.91;1852322;77;22186;-56
2021/06/28 11:50:38;;;;;;;4.25;3.12;;;;;;;37.19;27.46;100517.30;1811300;77;28089;-56
2021/06/28 11:53:13;;;;;;;3.05;2.52;;;;;;;37.26;26.72;100506.94;1834494;77;22168;-57
2021/06/28 11:56:18;;;;;;;4.90;2.83;;;;;;;37.40;28.13;100511.55;1826932;77;22594;-57
2021/06/28 11:58:40;;;;;;;3.72;2.58;;;;;;;37.57;27.75;100513.56;1816368;77;22182;-56
2021/06/28 12:01:54;;;;;;;3.72;2.55;;;;;;;37.60;26.72;100509.06;1834396;77;22157;-60
2021/06/28 12:04:32;;;;;;;4.83;2.83;;;;;;;37.49;27.36;100509.56;1807101;77;22538;-60
2021/06/28 12:07:06;;;;;;;8.33;3.02;;;;;;;37.58;26.52;100504.80;1824741;77;22167;-56
2021/06/28 12:09:45;;;;;;;2.85;2.42;;;;;;;37.45;26.57;100504.13;1798448;77;22204;-60
2021/06/28 12:12:33;;;;;;;5.75;2.77;;;;;;;37.20;27.35;100505.82;1852534;77;22147;-57
2021/06/28 12:15:08;;;;;;;2.75;2.40;;;;;;;37.27;27.04;100504.52;1806173;77;22217;-57
2021/06/28 12:17:41;;;;;;;5.62;3.12;;;;;;;37.39;27.27;100506.23;1825909;77;22166;-56
2021/06/28 12:20:18;;;;;;;3.87;2.90;;;;;;;37.47;26.48;100504.28;1829453;77;22198;-60
2021/06/28 12:23:09;;;;;;;14.43;3.35;;;;;;;37.43;27.19;100502.06;1852853;77;22127;-60
2021/06/28 12:25:43;;;;;;;3.42;2.75;;;;;;;37.45;26.37;100504.13;1800441;77;22247;-56
2021/06/28 13:07:52;;;;;;;4.05;2.60;;;;;;;35.66;27.80;100497.30;1858766;77;28183;-60
2021/06/28 13:10:25;;;;;;;5.20;2.80;;;;;;;35.66;28.49;100495.42;1824659;77;22178;-60
2021/06/28 13:13:21;;;;;;;5.00;3.12;;;;;;;35.69;28.85;100497.80;1834145;77;22184;-60
2021/06/28 13:16:13;;;;;;;4.33;2.90;;;;;;;35.92;30.02;100495.57;1822861;77;22521;-56
2021/06/28 13:19:08;;;;;;;4.03;3.10;;;;;;;36.23;29.68;100488.33;1834094;77;22175;-56